Columbia (CAE/KCAE)

Map

Destinations

Information

Location
Columbia, SC
Local Time
19:46 / 7:46 pm
GMT Time
23:46 / 11:46 pm
Gates
Unassigned
No FAA reported delays
METAR KCAE 232256Z 09006KT 10SM FEW065 29/17 A2999 RMK AO2 SLP153 T02940167 $
TAF KCAE 232031Z 2321/2418 11008KT P6SM SCT060 FM240000 VRB03KT P6SM SKC FM241500 05008KT P6SM SCT060